首页
METAR-TAF:

METAR-TAF

机场 :

Kangiqsualujjuaq, 魁北克, 加拿大

纬度: 58-43N, 经度: 065-59W, 海拔: 60米

当前天气观测

该预报发布于10小时和18分钟前的12:00 UTC
风速5节,风向东南,在之间变化
温度 2°C
湿度 69%
气压 1017 hPa
能見度: 24.1公里
散云层高于24000英尺

METAR: CYLU 261200Z 13005KT 090V170 15SM SCT240 02/M03 A3004 RMK CC3 LAST STFD OBS/NEXT 271200 UTC SLP179

时间: 18:18 (22:18 UTC)


TAF: 丢失

超过4000个机场的气象观测和天气预报(METAR&TAF报告)。

可查询的气象台以黄色和红色小点在地图上表示。

将鼠标移到小点上方,可查看气象台名称。

然后点击查看天气观测和预报。

如需切换地图:点击带黑十字的绿色按钮放大地图;点击带横线的绿色按钮缩小地图;或者点击绿色箭头查看邻近地区的地图。


METAR-TAF: